Aérodrome :
LOGIN :

S'inscrire | Disclaimer

   EN    FR    IT 

 










Légende :    VFR   VFR Marginal   IFR   IFR Intensif   IFR Très Intensif
Visi : 
Plafond : 
>= 8 km
>= 3000ft
5 à 8 km
1000 à 3000 ft
1500m à 5 km
500 à 1000 ft
800 à 1500m
200 à 500 ft
< 800m
< 200 ft
Symboles :   Orages  Brouillard  Fortes neiges  Fortes précipitations  Vent > 20 kt
SIGMETs :   Divers  Orages  Givrage  Turbulence  Onde Orograph.  Cendres Volcan.







- Altitude de l'aérodrome : 502 ft
- Code IATA : ORK


EICK - Cork

DERNIER METAR :
  • 260330Z 34009KT 9999 FEW018 01/M01 Q1023 NOSIG

METARs EXPIRÉS :
  • 260300Z 35007KT 9999 FEW020 02/M01 Q1023 NOSIG
  • 260230Z 35011KT 9999 FEW020 02/M01 Q1023 NOSIG
  • 260200Z 34008KT 9999 FEW020 01/M01 Q1023 NOSIG
  • 260130Z 31007KT 9999 FEW020CB 01/M01 Q1023 NOSIG

TAF TAF EICK
Valide du 26 à 00h jusqu'au 27 à 00h UTC


252300Z 2600/2624 35009KT 9999 FEW020
TEMPO 2600/2603 FEW020CB
BECMG 2621/2624 32010KT
Pas de NOTAMs connus pour ce terrain.



MET'MAP, la Météo Aéronautique d'un coup d'oeil ! - Copyright ORBIFLY Décembre 2007 - Disclaimer

ORBIFLY MET'MAP TEAM :

Programmation & Développement : Alexandra Zaïnal
Conception & Développement : Baudouin d'Aumeries
Co-Programmation & Développement : Marc-Olivier Méhu
Soutien technique & logistique : Manuel Goepfert

Contact : metmap@orbifly.com




SOURCES & CREDITS :

   NOAA